sensor_id;sensor_type;location;lat;lon;timestamp;P1;durP1;ratioP1;P2;durP2;ratioP2
29550;SDS011;16488;52.396;10.696;2022-10-31T00:02:05;22.25;;;11.05;;
29550;SDS011;16488;52.396;10.696;2022-10-31T00:04:30;22.17;;;10.60;;
29550;SDS011;16488;52.396;10.696;2022-10-31T00:06:56;25.90;;;10.30;;
29550;SDS011;16488;52.396;10.696;2022-10-31T00:09:22;20.52;;;9.93;;
29550;SDS011;16488;52.396;10.696;2022-10-31T00:11:47;15.60;;;9.50;;
29550;SDS011;16488;52.396;10.696;2022-10-31T00:14:13;17.67;;;8.10;;
29550;SDS011;16488;52.396;10.696;2022-10-31T00:16:39;17.95;;;9.20;;
29550;SDS011;16488;52.396;10.696;2022-10-31T00:19:06;24.40;;;10.85;;
29550;SDS011;16488;52.396;10.696;2022-10-31T00:23:58;20.83;;;10.95;;
29550;SDS011;16488;52.396;10.696;2022-10-31T00:26:28;28.50;;;16.52;;
29550;SDS011;16488;52.396;10.696;2022-10-31T00:28:55;30.70;;;17.80;;
29550;SDS011;16488;52.396;10.696;2022-10-31T00:31:21;26.42;;;13.77;;
29550;SDS011;16488;52.396;10.696;2022-10-31T00:33:46;21.92;;;10.68;;
29550;SDS011;16488;52.396;10.696;2022-10-31T00:36:16;14.37;;;9.50;;
29550;SDS011;16488;52.396;10.696;2022-10-31T00:38:42;25.80;;;9.65;;
29550;SDS011;16488;52.396;10.696;2022-10-31T00:41:09;25.02;;;8.70;;
29550;SDS011;16488;52.396;10.696;2022-10-31T00:43:35;17.33;;;9.18;;
29550;SDS011;16488;52.396;10.696;2022-10-31T00:46:01;22.07;;;10.70;;
29550;SDS011;16488;52.396;10.696;2022-10-31T00:48:26;22.13;;;11.33;;
29550;SDS011;16488;52.396;10.696;2022-10-31T00:50:52;31.88;;;11.05;;
29550;SDS011;16488;52.396;10.696;2022-10-31T00:53:25;36.45;;;16.05;;
29550;SDS011;16488;52.396;10.696;2022-10-31T00:55:51;31.58;;;18.23;;
29550;SDS011;16488;52.396;10.696;2022-10-31T00:58:16;30.57;;;18.70;;
29550;SDS011;16488;52.396;10.696;2022-10-31T01:00:42;33.40;;;17.80;;
29550;SDS011;16488;52.396;10.696;2022-10-31T01:03:08;28.10;;;15.38;;
29550;SDS011;16488;52.396;10.696;2022-10-31T01:05:33;28.87;;;14.73;;
29550;SDS011;16488;52.396;10.696;2022-10-31T01:07:59;26.07;;;13.73;;
29550;SDS011;16488;52.396;10.696;2022-10-31T01:10:24;27.77;;;11.53;;
29550;SDS011;16488;52.396;10.696;2022-10-31T01:12:50;19.80;;;10.35;;
29550;SDS011;16488;52.396;10.696;2022-10-31T01:15:19;20.80;;;10.43;;
29550;SDS011;16488;52.396;10.696;2022-10-31T01:17:46;22.88;;;9.43;;
29550;SDS011;16488;52.396;10.696;2022-10-31T01:20:13;19.45;;;9.68;;
29550;SDS011;16488;52.396;10.696;2022-10-31T01:22:41;28.25;;;10.27;;
29550;SDS011;16488;52.396;10.696;2022-10-31T01:25:13;21.95;;;10.75;;
29550;SDS011;16488;52.396;10.696;2022-10-31T01:27:38;14.82;;;8.80;;
29550;SDS011;16488;52.396;10.696;2022-10-31T01:30:04;19.40;;;11.35;;
29550;SDS011;16488;52.396;10.696;2022-10-31T01:34:56;23.20;;;11.05;;
29550;SDS011;16488;52.396;10.696;2022-10-31T01:37:22;28.00;;;12.65;;
29550;SDS011;16488;52.396;10.696;2022-10-31T01:39:47;30.40;;;12.90;;
29550;SDS011;16488;52.396;10.696;2022-10-31T01:42:18;25.95;;;12.30;;
29550;SDS011;16488;52.396;10.696;2022-10-31T01:44:50;22.92;;;11.02;;
29550;SDS011;16488;52.396;10.696;2022-10-31T01:47:19;23.83;;;13.10;;
29550;SDS011;16488;52.396;10.696;2022-10-31T01:49:53;22.65;;;9.85;;
29550;SDS011;16488;52.396;10.696;2022-10-31T01:52:23;20.02;;;10.60;;
29550;SDS011;16488;52.396;10.696;2022-10-31T01:55:05;23.02;;;10.73;;
29550;SDS011;16488;52.396;10.696;2022-10-31T01:57:32;31.08;;;11.55;;
29550;SDS011;16488;52.396;10.696;2022-10-31T02:00:02;23.83;;;10.35;;
29550;SDS011;16488;52.396;10.696;2022-10-31T02:02:31;21.00;;;10.85;;
29550;SDS011;16488;52.396;10.696;2022-10-31T02:04:57;30.27;;;11.90;;
29550;SDS011;16488;52.396;10.696;2022-10-31T02:10:24;20.85;;;10.57;;
29550;SDS011;16488;52.396;10.696;2022-10-31T02:13:03;24.27;;;10.55;;
29550;SDS011;16488;52.396;10.696;2022-10-31T02:15:31;23.00;;;11.77;;
29550;SDS011;16488;52.396;10.696;2022-10-31T02:17:57;19.33;;;9.93;;
29550;SDS011;16488;52.396;10.696;2022-10-31T02:20:24;28.27;;;12.07;;
29550;SDS011;16488;52.396;10.696;2022-10-31T02:25:51;28.05;;;10.57;;
29550;SDS011;16488;52.396;10.696;2022-10-31T02:31:12;26.70;;;13.38;;
29550;SDS011;16488;52.396;10.696;2022-10-31T02:34:02;22.88;;;12.20;;
29550;SDS011;16488;52.396;10.696;2022-10-31T02:39:37;23.67;;;13.52;;
29550;SDS011;16488;52.396;10.696;2022-10-31T02:42:28;29.35;;;13.82;;
29550;SDS011;16488;52.396;10.696;2022-10-31T02:47:37;29.77;;;12.95;;
29550;SDS011;16488;52.396;10.696;2022-10-31T02:50:05;28.60;;;14.55;;
29550;SDS011;16488;52.396;10.696;2022-10-31T02:52:35;24.65;;;13.20;;
29550;SDS011;16488;52.396;10.696;2022-10-31T02:55:12;30.13;;;13.88;;
29550;SDS011;16488;52.396;10.696;2022-10-31T02:58:00;29.85;;;13.95;;
29550;SDS011;16488;52.396;10.696;2022-10-31T03:01:03;30.00;;;15.00;;
29550;SDS011;16488;52.396;10.696;2022-10-31T03:06:35;31.27;;;15.02;;
29550;SDS011;16488;52.396;10.696;2022-10-31T03:09:11;38.42;;;16.17;;
29550;SDS011;16488;52.396;10.696;2022-10-31T03:11:53;36.72;;;17.52;;
29550;SDS011;16488;52.396;10.696;2022-10-31T03:14:51;44.42;;;17.90;;
29550;SDS011;16488;52.396;10.696;2022-10-31T03:24:07;48.60;;;21.50;;
29550;SDS011;16488;52.396;10.696;2022-10-31T03:26:35;43.80;;;21.98;;
29550;SDS011;16488;52.396;10.696;2022-10-31T03:29:04;43.63;;;21.45;;
29550;SDS011;16488;52.396;10.696;2022-10-31T03:31:33;59.50;;;25.73;;
29550;SDS011;16488;52.396;10.696;2022-10-31T03:34:03;69.25;;;25.63;;
29550;SDS011;16488;52.396;10.696;2022-10-31T03:36:32;69.38;;;28.77;;
29550;SDS011;16488;52.396;10.696;2022-10-31T03:39:02;67.18;;;30.42;;
29550;SDS011;16488;52.396;10.696;2022-10-31T03:41:31;84.70;;;31.80;;
29550;SDS011;16488;52.396;10.696;2022-10-31T03:44:04;89.80;;;37.70;;
29550;SDS011;16488;52.396;10.696;2022-10-31T03:46:34;81.40;;;37.33;;
29550;SDS011;16488;52.396;10.696;2022-10-31T03:48:59;96.90;;;40.17;;
29550;SDS011;16488;52.396;10.696;2022-10-31T03:56:34;87.05;;;36.58;;
29550;SDS011;16488;52.396;10.696;2022-10-31T03:59:20;83.32;;;37.35;;
29550;SDS011;16488;52.396;10.696;2022-10-31T04:02:00;95.60;;;39.37;;
29550;SDS011;16488;52.396;10.696;2022-10-31T04:04:28;79.15;;;36.45;;
29550;SDS011;16488;52.396;10.696;2022-10-31T04:06:55;82.85;;;35.47;;
29550;SDS011;16488;52.396;10.696;2022-10-31T04:09:25;83.00;;;34.95;;
29550;SDS011;16488;52.396;10.696;2022-10-31T04:11:53;89.63;;;38.83;;
29550;SDS011;16488;52.396;10.696;2022-10-31T04:14:22;83.25;;;37.53;;
29550;SDS011;16488;52.396;10.696;2022-10-31T04:16:50;88.18;;;36.80;;
29550;SDS011;16488;52.396;10.696;2022-10-31T04:19:16;93.05;;;37.08;;
29550;SDS011;16488;52.396;10.696;2022-10-31T04:21:42;99.63;;;38.30;;
29550;SDS011;16488;52.396;10.696;2022-10-31T04:24:08;91.45;;;38.05;;
29550;SDS011;16488;52.396;10.696;2022-10-31T04:26:34;85.28;;;36.88;;
29550;SDS011;16488;52.396;10.696;2022-10-31T04:29:00;102.60;;;39.37;;
29550;SDS011;16488;52.396;10.696;2022-10-31T04:31:25;89.90;;;37.28;;
29550;SDS011;16488;52.396;10.696;2022-10-31T04:33:51;90.55;;;38.58;;
29550;SDS011;16488;52.396;10.696;2022-10-31T04:36:17;89.60;;;38.22;;
29550;SDS011;16488;52.396;10.696;2022-10-31T04:38:42;91.50;;;41.33;;
29550;SDS011;16488;52.396;10.696;2022-10-31T04:41:08;91.55;;;41.33;;
29550;SDS011;16488;52.396;10.696;2022-10-31T04:43:34;95.70;;;38.35;;
29550;SDS011;16488;52.396;10.696;2022-10-31T04:45:59;86.87;;;37.93;;
29550;SDS011;16488;52.396;10.696;2022-10-31T04:48:25;100.93;;;43.93;;
29550;SDS011;16488;52.396;10.696;2022-10-31T04:50:51;100.75;;;42.33;;
29550;SDS011;16488;52.396;10.696;2022-10-31T04:53:16;107.90;;;43.57;;
29550;SDS011;16488;52.396;10.696;2022-10-31T04:55:42;97.90;;;43.30;;
29550;SDS011;16488;52.396;10.696;2022-10-31T04:58:07;115.13;;;43.07;;
29550;SDS011;16488;52.396;10.696;2022-10-31T05:00:33;104.33;;;45.90;;
29550;SDS011;16488;52.396;10.696;2022-10-31T05:02:58;104.63;;;45.00;;
29550;SDS011;16488;52.396;10.696;2022-10-31T05:05:25;112.43;;;44.37;;
29550;SDS011;16488;52.396;10.696;2022-10-31T05:07:53;94.22;;;45.40;;
29550;SDS011;16488;52.396;10.696;2022-10-31T05:10:20;107.45;;;45.72;;
29550;SDS011;16488;52.396;10.696;2022-10-31T05:15:20;108.90;;;44.90;;
29550;SDS011;16488;52.396;10.696;2022-10-31T05:17:47;106.63;;;45.13;;
29550;SDS011;16488;52.396;10.696;2022-10-31T05:20:13;113.68;;;41.25;;
29550;SDS011;16488;52.396;10.696;2022-10-31T05:22:44;103.75;;;44.17;;
29550;SDS011;16488;52.396;10.696;2022-10-31T05:25:14;103.18;;;43.25;;
29550;SDS011;16488;52.396;10.696;2022-10-31T05:27:41;116.38;;;47.85;;
29550;SDS011;16488;52.396;10.696;2022-10-31T05:30:08;107.50;;;46.38;;
29550;SDS011;16488;52.396;10.696;2022-10-31T05:32:45;101.65;;;45.90;;
29550;SDS011;16488;52.396;10.696;2022-10-31T05:35:13;118.57;;;46.67;;
29550;SDS011;16488;52.396;10.696;2022-10-31T05:37:43;114.53;;;46.78;;
29550;SDS011;16488;52.396;10.696;2022-10-31T05:40:09;107.13;;;44.10;;
29550;SDS011;16488;52.396;10.696;2022-10-31T05:42:37;97.22;;;40.85;;
29550;SDS011;16488;52.396;10.696;2022-10-31T05:45:04;108.47;;;43.08;;
29550;SDS011;16488;52.396;10.696;2022-10-31T05:47:31;116.97;;;46.38;;
29550;SDS011;16488;52.396;10.696;2022-10-31T05:49:56;103.72;;;42.40;;
29550;SDS011;16488;52.396;10.696;2022-10-31T05:52:22;103.77;;;42.53;;
29550;SDS011;16488;52.396;10.696;2022-10-31T05:54:48;108.18;;;44.00;;
29550;SDS011;16488;52.396;10.696;2022-10-31T05:57:13;116.73;;;46.07;;
29550;SDS011;16488;52.396;10.696;2022-10-31T05:59:39;104.97;;;43.40;;
29550;SDS011;16488;52.396;10.696;2022-10-31T06:02:04;90.63;;;36.60;;
29550;SDS011;16488;52.396;10.696;2022-10-31T06:04:30;99.70;;;42.67;;
29550;SDS011;16488;52.396;10.696;2022-10-31T06:06:56;116.70;;;44.97;;
29550;SDS011;16488;52.396;10.696;2022-10-31T06:09:21;105.18;;;42.25;;
29550;SDS011;16488;52.396;10.696;2022-10-31T06:11:47;104.20;;;42.47;;
29550;SDS011;16488;52.396;10.696;2022-10-31T06:14:12;95.27;;;41.10;;
29550;SDS011;16488;52.396;10.696;2022-10-31T06:16:38;96.63;;;40.77;;
29550;SDS011;16488;52.396;10.696;2022-10-31T06:19:03;104.60;;;43.97;;
29550;SDS011;16488;52.396;10.696;2022-10-31T06:21:29;120.97;;;46.37;;
29550;SDS011;16488;52.396;10.696;2022-10-31T06:23:54;126.73;;;48.67;;
29550;SDS011;16488;52.396;10.696;2022-10-31T06:26:20;114.47;;;45.13;;
29550;SDS011;16488;52.396;10.696;2022-10-31T06:28:46;117.67;;;48.03;;
29550;SDS011;16488;52.396;10.696;2022-10-31T06:31:11;97.03;;;42.60;;
29550;SDS011;16488;52.396;10.696;2022-10-31T06:33:37;103.07;;;42.50;;
29550;SDS011;16488;52.396;10.696;2022-10-31T06:36:02;103.23;;;42.93;;
29550;SDS011;16488;52.396;10.696;2022-10-31T06:38:28;93.68;;;41.80;;
29550;SDS011;16488;52.396;10.696;2022-10-31T06:40:54;102.43;;;42.73;;
29550;SDS011;16488;52.396;10.696;2022-10-31T06:43:22;109.28;;;43.22;;
29550;SDS011;16488;52.396;10.696;2022-10-31T06:45:48;98.43;;;43.45;;
29550;SDS011;16488;52.396;10.696;2022-10-31T06:48:14;89.27;;;39.40;;
29550;SDS011;16488;52.396;10.696;2022-10-31T06:50:39;101.93;;;41.50;;
29550;SDS011;16488;52.396;10.696;2022-10-31T06:53:05;91.40;;;40.27;;
29550;SDS011;16488;52.396;10.696;2022-10-31T06:55:31;94.22;;;41.05;;
29550;SDS011;16488;52.396;10.696;2022-10-31T06:57:57;84.53;;;39.50;;
29550;SDS011;16488;52.396;10.696;2022-10-31T07:00:24;87.13;;;39.72;;
29550;SDS011;16488;52.396;10.696;2022-10-31T07:02:58;92.53;;;45.00;;
29550;SDS011;16488;52.396;10.696;2022-10-31T07:05:25;97.50;;;44.80;;
29550;SDS011;16488;52.396;10.696;2022-10-31T07:07:52;92.50;;;43.53;;
29550;SDS011;16488;52.396;10.696;2022-10-31T07:10:19;92.80;;;40.70;;
29550;SDS011;16488;52.396;10.696;2022-10-31T07:12:44;93.35;;;45.30;;
29550;SDS011;16488;52.396;10.696;2022-10-31T07:15:10;106.00;;;47.33;;
29550;SDS011;16488;52.396;10.696;2022-10-31T07:17:35;98.57;;;45.13;;
29550;SDS011;16488;52.396;10.696;2022-10-31T07:20:01;93.80;;;48.72;;
29550;SDS011;16488;52.396;10.696;2022-10-31T07:22:33;104.10;;;47.17;;
29550;SDS011;16488;52.396;10.696;2022-10-31T07:25:00;94.57;;;44.97;;
29550;SDS011;16488;52.396;10.696;2022-10-31T07:27:26;107.82;;;49.47;;
29550;SDS011;16488;52.396;10.696;2022-10-31T07:29:51;101.45;;;46.15;;
29550;SDS011;16488;52.396;10.696;2022-10-31T07:32:17;101.67;;;45.10;;
29550;SDS011;16488;52.396;10.696;2022-10-31T07:34:42;93.15;;;45.35;;
29550;SDS011;16488;52.396;10.696;2022-10-31T07:37:08;95.67;;;46.23;;
29550;SDS011;16488;52.396;10.696;2022-10-31T07:39:33;110.90;;;50.87;;
29550;SDS011;16488;52.396;10.696;2022-10-31T07:41:59;107.90;;;47.80;;
29550;SDS011;16488;52.396;10.696;2022-10-31T07:44:24;99.20;;;47.83;;
29550;SDS011;16488;52.396;10.696;2022-10-31T07:46:50;115.90;;;49.60;;
29550;SDS011;16488;52.396;10.696;2022-10-31T07:49:15;117.30;;;50.77;;
29550;SDS011;16488;52.396;10.696;2022-10-31T07:51:41;96.63;;;47.37;;
29550;SDS011;16488;52.396;10.696;2022-10-31T07:54:06;106.30;;;47.47;;
29550;SDS011;16488;52.396;10.696;2022-10-31T07:56:32;97.60;;;46.85;;
29550;SDS011;16488;52.396;10.696;2022-10-31T07:58:58;103.17;;;45.53;;
29550;SDS011;16488;52.396;10.696;2022-10-31T08:01:23;96.17;;;45.90;;
29550;SDS011;16488;52.396;10.696;2022-10-31T08:03:49;106.43;;;49.70;;
29550;SDS011;16488;52.396;10.696;2022-10-31T08:06:14;98.93;;;46.00;;
29550;SDS011;16488;52.396;10.696;2022-10-31T08:08:40;100.27;;;45.40;;
29550;SDS011;16488;52.396;10.696;2022-10-31T08:11:05;106.13;;;46.83;;
29550;SDS011;16488;52.396;10.696;2022-10-31T08:13:31;95.50;;;45.33;;
29550;SDS011;16488;52.396;10.696;2022-10-31T08:15:57;99.60;;;46.80;;
29550;SDS011;16488;52.396;10.696;2022-10-31T08:18:28;92.00;;;47.35;;
29550;SDS011;16488;52.396;10.696;2022-10-31T08:20:54;99.45;;;47.92;;
29550;SDS011;16488;52.396;10.696;2022-10-31T08:23:20;102.97;;;47.55;;
29550;SDS011;16488;52.396;10.696;2022-10-31T08:25:45;94.35;;;46.53;;
29550;SDS011;16488;52.396;10.696;2022-10-31T08:28:14;103.60;;;46.65;;
29550;SDS011;16488;52.396;10.696;2022-10-31T08:30:40;95.28;;;44.97;;
29550;SDS011;16488;52.396;10.696;2022-10-31T08:33:08;103.78;;;43.92;;
29550;SDS011;16488;52.396;10.696;2022-10-31T08:35:36;104.82;;;47.17;;
29550;SDS011;16488;52.396;10.696;2022-10-31T08:38:02;105.15;;;48.33;;
29550;SDS011;16488;52.396;10.696;2022-10-31T08:40:29;111.32;;;48.83;;
29550;SDS011;16488;52.396;10.696;2022-10-31T08:42:57;113.88;;;51.60;;
29550;SDS011;16488;52.396;10.696;2022-10-31T08:45:28;109.10;;;48.97;;
29550;SDS011;16488;52.396;10.696;2022-10-31T08:47:58;111.45;;;49.42;;
29550;SDS011;16488;52.396;10.696;2022-10-31T08:50:25;107.63;;;49.97;;
29550;SDS011;16488;52.396;10.696;2022-10-31T08:52:52;116.63;;;49.67;;
29550;SDS011;16488;52.396;10.696;2022-10-31T08:55:18;114.70;;;49.17;;
29550;SDS011;16488;52.396;10.696;2022-10-31T08:57:43;99.38;;;45.67;;
29550;SDS011;16488;52.396;10.696;2022-10-31T09:00:09;101.57;;;43.50;;
29550;SDS011;16488;52.396;10.696;2022-10-31T09:02:35;95.10;;;43.80;;
29550;SDS011;16488;52.396;10.696;2022-10-31T09:05:02;99.85;;;45.50;;
29550;SDS011;16488;52.396;10.696;2022-10-31T09:07:27;103.50;;;46.08;;
29550;SDS011;16488;52.396;10.696;2022-10-31T09:09:53;94.10;;;43.90;;
29550;SDS011;16488;52.396;10.696;2022-10-31T09:12:20;107.97;;;47.97;;
29550;SDS011;16488;52.396;10.696;2022-10-31T09:14:46;110.67;;;47.37;;
29550;SDS011;16488;52.396;10.696;2022-10-31T09:17:11;100.25;;;45.47;;
29550;SDS011;16488;52.396;10.696;2022-10-31T09:19:37;106.27;;;46.73;;
29550;SDS011;16488;52.396;10.696;2022-10-31T09:22:02;106.13;;;46.80;;
29550;SDS011;16488;52.396;10.696;2022-10-31T09:24:28;107.57;;;43.07;;
29550;SDS011;16488;52.396;10.696;2022-10-31T09:26:53;90.80;;;41.27;;
29550;SDS011;16488;52.396;10.696;2022-10-31T09:29:19;98.13;;;43.27;;
29550;SDS011;16488;52.396;10.696;2022-10-31T09:31:44;103.53;;;42.63;;
29550;SDS011;16488;52.396;10.696;2022-10-31T09:34:10;95.87;;;44.13;;
29550;SDS011;16488;52.396;10.696;2022-10-31T09:36:36;85.33;;;41.10;;
29550;SDS011;16488;52.396;10.696;2022-10-31T09:39:02;93.85;;;42.97;;
29550;SDS011;16488;52.396;10.696;2022-10-31T09:44:21;99.00;;;41.08;;
29550;SDS011;16488;52.396;10.696;2022-10-31T09:47:17;100.10;;;45.08;;
29550;SDS011;16488;52.396;10.696;2022-10-31T09:50:14;96.60;;;40.50;;
29550;SDS011;16488;52.396;10.696;2022-10-31T09:53:03;96.15;;;42.72;;
29550;SDS011;16488;52.396;10.696;2022-10-31T09:55:41;73.85;;;36.60;;
29550;SDS011;16488;52.396;10.696;2022-10-31T09:58:15;81.50;;;39.47;;
29550;SDS011;16488;52.396;10.696;2022-10-31T10:00:44;78.78;;;34.65;;
29550;SDS011;16488;52.396;10.696;2022-10-31T10:03:21;72.85;;;33.88;;
29550;SDS011;16488;52.396;10.696;2022-10-31T10:06:19;66.45;;;32.63;;
29550;SDS011;16488;52.396;10.696;2022-10-31T10:08:48;68.57;;;32.90;;
29550;SDS011;16488;52.396;10.696;2022-10-31T10:19:45;64.38;;;33.85;;
29550;SDS011;16488;52.396;10.696;2022-10-31T10:22:46;61.78;;;30.35;;
29550;SDS011;16488;52.396;10.696;2022-10-31T10:30:42;62.78;;;29.75;;
29550;SDS011;16488;52.396;10.696;2022-10-31T10:33:31;59.22;;;27.98;;
29550;SDS011;16488;52.396;10.696;2022-10-31T10:36:04;63.05;;;30.15;;
29550;SDS011;16488;52.396;10.696;2022-10-31T10:41:17;52.88;;;29.30;;
29550;SDS011;16488;52.396;10.696;2022-10-31T10:43:44;64.60;;;28.10;;
29550;SDS011;16488;52.396;10.696;2022-10-31T10:51:40;61.53;;;30.02;;
29550;SDS011;16488;52.396;10.696;2022-10-31T10:59:51;58.60;;;29.35;;
29550;SDS011;16488;52.396;10.696;2022-10-31T11:02:18;63.25;;;30.13;;
29550;SDS011;16488;52.396;10.696;2022-10-31T11:04:47;61.65;;;27.92;;
29550;SDS011;16488;52.396;10.696;2022-10-31T11:07:19;59.33;;;27.02;;
29550;SDS011;16488;52.396;10.696;2022-10-31T11:09:44;55.47;;;28.30;;
29550;SDS011;16488;52.396;10.696;2022-10-31T11:12:22;61.45;;;28.08;;
29550;SDS011;16488;52.396;10.696;2022-10-31T11:14:55;59.85;;;27.75;;
29550;SDS011;16488;52.396;10.696;2022-10-31T11:17:33;59.35;;;28.05;;
29550;SDS011;16488;52.396;10.696;2022-10-31T11:22:36;59.22;;;26.63;;
29550;SDS011;16488;52.396;10.696;2022-10-31T11:25:14;52.42;;;25.70;;
29550;SDS011;16488;52.396;10.696;2022-10-31T11:27:46;59.55;;;26.83;;
29550;SDS011;16488;52.396;10.696;2022-10-31T11:30:13;58.08;;;26.75;;
29550;SDS011;16488;52.396;10.696;2022-10-31T11:32:48;55.22;;;25.80;;
29550;SDS011;16488;52.396;10.696;2022-10-31T11:35:19;52.53;;;24.33;;
29550;SDS011;16488;52.396;10.696;2022-10-31T11:37:47;54.60;;;24.35;;
29550;SDS011;16488;52.396;10.696;2022-10-31T11:40:16;43.92;;;21.95;;
29550;SDS011;16488;52.396;10.696;2022-10-31T11:42:46;31.83;;;14.88;;
29550;SDS011;16488;52.396;10.696;2022-10-31T11:45:15;31.20;;;13.55;;
29550;SDS011;16488;52.396;10.696;2022-10-31T11:47:53;26.15;;;12.77;;
29550;SDS011;16488;52.396;10.696;2022-10-31T11:50:22;32.47;;;15.20;;
29550;SDS011;16488;52.396;10.696;2022-10-31T11:52:49;37.78;;;20.35;;
29550;SDS011;16488;52.396;10.696;2022-10-31T11:55:34;46.92;;;22.55;;
29550;SDS011;16488;52.396;10.696;2022-10-31T11:58:02;49.13;;;24.05;;
29550;SDS011;16488;52.396;10.696;2022-10-31T12:00:32;50.40;;;23.40;;
29550;SDS011;16488;52.396;10.696;2022-10-31T12:06:02;40.35;;;22.95;;
29550;SDS011;16488;52.396;10.696;2022-10-31T12:08:33;44.38;;;21.33;;
29550;SDS011;16488;52.396;10.696;2022-10-31T12:16:29;48.40;;;22.05;;
29550;SDS011;16488;52.396;10.696;2022-10-31T12:22:13;47.13;;;20.00;;
29550;SDS011;16488;52.396;10.696;2022-10-31T12:30:19;37.30;;;18.70;;
29550;SDS011;16488;52.396;10.696;2022-10-31T12:33:16;39.17;;;18.48;;
29550;SDS011;16488;52.396;10.696;2022-10-31T12:38:54;36.90;;;18.20;;
29550;SDS011;16488;52.396;10.696;2022-10-31T12:47:00;35.73;;;17.17;;
29550;SDS011;16488;52.396;10.696;2022-10-31T12:49:54;32.00;;;15.88;;
29550;SDS011;16488;52.396;10.696;2022-10-31T12:52:53;30.17;;;15.45;;
29550;SDS011;16488;52.396;10.696;2022-10-31T12:55:45;32.00;;;15.93;;
29550;SDS011;16488;52.396;10.696;2022-10-31T12:58:35;35.53;;;17.67;;
29550;SDS011;16488;52.396;10.696;2022-10-31T13:01:09;37.15;;;19.15;;
29550;SDS011;16488;52.396;10.696;2022-10-31T13:04:00;36.63;;;17.95;;
29550;SDS011;16488;52.396;10.696;2022-10-31T13:06:33;42.78;;;18.17;;
29550;SDS011;16488;52.396;10.696;2022-10-31T13:09:15;31.75;;;18.42;;
29550;SDS011;16488;52.396;10.696;2022-10-31T13:12:07;38.42;;;19.00;;
29550;SDS011;16488;52.396;10.696;2022-10-31T13:14:35;41.28;;;19.20;;
29550;SDS011;16488;52.396;10.696;2022-10-31T13:17:06;39.83;;;19.40;;
29550;SDS011;16488;52.396;10.696;2022-10-31T13:19:43;45.38;;;21.30;;
29550;SDS011;16488;52.396;10.696;2022-10-31T13:22:16;38.22;;;19.92;;
29550;SDS011;16488;52.396;10.696;2022-10-31T13:30:14;26.15;;;13.68;;
29550;SDS011;16488;52.396;10.696;2022-10-31T13:32:52;18.23;;;9.93;;
29550;SDS011;16488;52.396;10.696;2022-10-31T13:40:51;16.90;;;6.78;;
29550;SDS011;16488;52.396;10.696;2022-10-31T13:46:24;37.53;;;17.98;;
29550;SDS011;16488;52.396;10.696;2022-10-31T13:49:01;37.75;;;19.95;;
29550;SDS011;16488;52.396;10.696;2022-10-31T13:51:29;36.15;;;18.88;;
29550;SDS011;16488;52.396;10.696;2022-10-31T13:53:58;45.65;;;18.67;;
29550;SDS011;16488;52.396;10.696;2022-10-31T13:56:29;39.92;;;19.73;;
29550;SDS011;16488;52.396;10.696;2022-10-31T13:59:46;37.25;;;18.08;;
29550;SDS011;16488;52.396;10.696;2022-10-31T14:02:02;22.98;;;11.90;;
29550;SDS011;16488;52.396;10.696;2022-10-31T14:04:49;31.90;;;12.60;;
29550;SDS011;16488;52.396;10.696;2022-10-31T14:07:23;28.50;;;13.15;;
29550;SDS011;16488;52.396;10.696;2022-10-31T14:09:56;23.58;;;11.93;;
29550;SDS011;16488;52.396;10.696;2022-10-31T14:15:13;27.77;;;11.85;;
29550;SDS011;16488;52.396;10.696;2022-10-31T14:17:46;26.98;;;12.88;;
29550;SDS011;16488;52.396;10.696;2022-10-31T14:22:43;24.85;;;13.52;;
29550;SDS011;16488;52.396;10.696;2022-10-31T14:27:51;33.03;;;14.23;;
29550;SDS011;16488;52.396;10.696;2022-10-31T14:32:49;37.95;;;17.75;;
29550;SDS011;16488;52.396;10.696;2022-10-31T14:35:23;37.38;;;19.13;;
29550;SDS011;16488;52.396;10.696;2022-10-31T14:40:52;38.95;;;19.25;;
29550;SDS011;16488;52.396;10.696;2022-10-31T14:43:35;40.03;;;19.75;;
29550;SDS011;16488;52.396;10.696;2022-10-31T14:46:30;43.88;;;20.25;;
29550;SDS011;16488;52.396;10.696;2022-10-31T14:49:21;46.10;;;20.13;;
29550;SDS011;16488;52.396;10.696;2022-10-31T14:51:56;44.60;;;22.67;;
29550;SDS011;16488;52.396;10.696;2022-10-31T14:56:56;43.47;;;22.13;;
29550;SDS011;16488;52.396;10.696;2022-10-31T14:59:28;55.17;;;21.08;;
29550;SDS011;16488;52.396;10.696;2022-10-31T15:05:03;60.05;;;22.83;;
29550;SDS011;16488;52.396;10.696;2022-10-31T15:07:33;49.03;;;24.02;;
29550;SDS011;16488;52.396;10.696;2022-10-31T15:10:02;52.45;;;24.52;;
29550;SDS011;16488;52.396;10.696;2022-10-31T15:12:31;54.58;;;26.38;;
29550;SDS011;16488;52.396;10.696;2022-10-31T15:15:10;57.63;;;26.52;;
29550;SDS011;16488;52.396;10.696;2022-10-31T15:17:43;52.35;;;25.60;;
29550;SDS011;16488;52.396;10.696;2022-10-31T15:20:11;55.45;;;25.88;;
29550;SDS011;16488;52.396;10.696;2022-10-31T15:22:41;61.65;;;26.10;;
29550;SDS011;16488;52.396;10.696;2022-10-31T15:25:12;44.70;;;23.57;;
29550;SDS011;16488;52.396;10.696;2022-10-31T15:27:43;54.35;;;24.80;;
29550;SDS011;16488;52.396;10.696;2022-10-31T15:30:28;59.97;;;26.27;;
29550;SDS011;16488;52.396;10.696;2022-10-31T15:32:54;55.08;;;25.10;;
29550;SDS011;16488;52.396;10.696;2022-10-31T15:35:24;65.00;;;25.50;;
29550;SDS011;16488;52.396;10.696;2022-10-31T15:37:51;48.95;;;23.58;;
29550;SDS011;16488;52.396;10.696;2022-10-31T15:40:18;54.80;;;24.10;;
29550;SDS011;16488;52.396;10.696;2022-10-31T15:42:49;51.33;;;25.17;;
29550;SDS011;16488;52.396;10.696;2022-10-31T15:45:19;59.35;;;25.73;;
29550;SDS011;16488;52.396;10.696;2022-10-31T15:48:34;51.58;;;25.10;;
29550;SDS011;16488;52.396;10.696;2022-10-31T15:50:44;55.05;;;25.42;;
29550;SDS011;16488;52.396;10.696;2022-10-31T15:53:20;58.85;;;25.25;;
29550;SDS011;16488;52.396;10.696;2022-10-31T15:55:56;54.92;;;25.15;;
29550;SDS011;16488;52.396;10.696;2022-10-31T15:58:27;51.83;;;23.17;;
29550;SDS011;16488;52.396;10.696;2022-10-31T16:00:58;53.58;;;25.10;;
29550;SDS011;16488;52.396;10.696;2022-10-31T16:03:29;51.92;;;23.77;;
29550;SDS011;16488;52.396;10.696;2022-10-31T16:06:01;57.42;;;25.55;;
29550;SDS011;16488;52.396;10.696;2022-10-31T16:13:33;51.80;;;24.42;;
29550;SDS011;16488;52.396;10.696;2022-10-31T16:16:13;54.03;;;26.52;;
29550;SDS011;16488;52.396;10.696;2022-10-31T16:21:06;62.30;;;27.52;;
29550;SDS011;16488;52.396;10.696;2022-10-31T16:23:32;61.63;;;27.45;;
29550;SDS011;16488;52.396;10.696;2022-10-31T16:25:58;57.10;;;27.33;;
29550;SDS011;16488;52.396;10.696;2022-10-31T16:28:25;60.03;;;27.70;;
29550;SDS011;16488;52.396;10.696;2022-10-31T16:30:55;62.28;;;25.48;;
29550;SDS011;16488;52.396;10.696;2022-10-31T16:36:01;64.72;;;26.80;;
29550;SDS011;16488;52.396;10.696;2022-10-31T16:38:52;52.92;;;25.52;;
29550;SDS011;16488;52.396;10.696;2022-10-31T16:41:18;53.97;;;25.55;;
29550;SDS011;16488;52.396;10.696;2022-10-31T16:43:44;59.03;;;25.75;;